createdAt,value
2018-09-01T00:00:51.853Z,59.10
2018-09-01T00:03:20.069Z,58.39
2018-09-01T00:05:48.371Z,59.70
2018-09-01T00:08:16.522Z,59.38
2018-09-01T00:10:44.708Z,60.46
2018-09-01T00:13:13.953Z,59.73
2018-09-01T00:15:42.654Z,59.87
2018-09-01T00:18:10.916Z,59.93
2018-09-01T00:20:40.448Z,60.51
2018-09-01T00:23:08.660Z,59.72
2018-09-01T00:25:36.742Z,61.56
2018-09-01T00:28:05.595Z,61.70
2018-09-01T00:30:34.554Z,61.36
2018-09-01T00:33:04.425Z,61.48
2018-09-01T00:35:33.476Z,61.39
2018-09-01T00:38:07.616Z,61.49
2018-09-01T00:40:35.839Z,61.85
2018-09-01T00:43:04.199Z,62.12
2018-09-01T00:45:32.395Z,62.31
2018-09-01T00:48:00.634Z,62.81
2018-09-01T00:50:28.805Z,62.71
2018-09-01T00:52:57.059Z,63.30
2018-09-01T00:55:30.151Z,62.86
2018-09-01T00:57:58.711Z,63.02
2018-09-01T01:00:26.903Z,63.09
2018-09-01T01:02:55.994Z,64.00
2018-09-01T01:05:24.795Z,63.96
2018-09-01T01:07:52.969Z,63.89
2018-09-01T01:10:21.149Z,64.21
2018-09-01T01:12:49.581Z,64.06
2018-09-01T01:15:18.639Z,64.02
2018-09-01T01:17:47.001Z,65.30
2018-09-01T01:20:15.197Z,65.25
2018-09-01T01:22:43.374Z,64.54
2018-09-01T01:25:11.714Z,64.54
2018-09-01T01:27:39.951Z,64.69
2018-09-01T01:30:14.832Z,64.61
2018-09-01T01:32:43.307Z,64.41
2018-09-01T01:35:11.456Z,64.42
2018-09-01T01:37:39.872Z,64.96
2018-09-01T01:40:08.066Z,64.13
2018-09-01T01:42:37.286Z,64.83
2018-09-01T01:45:06.659Z,65.37
2018-09-01T01:47:38.904Z,64.97
2018-09-01T01:50:08.804Z,65.12
2018-09-01T01:52:37.194Z,66.21
2018-09-01T01:55:05.566Z,66.55
2018-09-01T01:57:38.318Z,66.17
2018-09-01T02:00:06.712Z,66.43
2018-09-01T02:02:35.710Z,65.95
2018-09-01T02:05:04.605Z,66.43
2018-09-01T02:07:32.925Z,66.39
2018-09-01T02:10:01.042Z,65.99
2018-09-01T02:12:29.375Z,66.37
2018-09-01T02:14:57.610Z,66.37
2018-09-01T02:17:25.866Z,66.97
2018-09-01T02:19:54.077Z,67.10
2018-09-01T02:22:22.280Z,67.07
2018-09-01T02:24:51.216Z,66.66
2018-09-01T02:27:20.141Z,66.46
2018-09-01T02:29:48.376Z,67.05
2018-09-01T02:32:16.524Z,67.68
2018-09-01T02:34:44.833Z,67.49
2018-09-01T02:37:13.048Z,67.78
2018-09-01T02:39:41.977Z,67.95
2018-09-01T02:42:10.793Z,68.19
2018-09-01T02:44:38.991Z,68.09
2018-09-01T02:47:07.913Z,68.27
2018-09-01T02:49:36.093Z,67.84
2018-09-01T02:52:05.521Z,68.65
2018-09-01T02:54:33.926Z,68.47
2018-09-01T02:57:02.179Z,68.96
2018-09-01T02:59:30.301Z,68.27
2018-09-01T03:01:58.561Z,69.03
2018-09-01T03:04:26.749Z,68.70
2018-09-01T03:06:57.547Z,69.32
2018-09-01T03:09:25.881Z,68.68
2018-09-01T03:11:55.379Z,69.57
2018-09-01T03:14:24.534Z,70.24
2018-09-01T03:16:53.853Z,70.04
2018-09-01T03:19:22.759Z,70.75
2018-09-01T03:21:50.953Z,69.99
2018-09-01T03:24:19.212Z,70.11
2018-09-01T03:26:47.527Z,70.12
2018-09-01T03:29:15.900Z,70.40
2018-09-01T03:31:45.699Z,70.10
2018-09-01T03:34:13.842Z,70.93
2018-09-01T03:36:42.700Z,70.71
2018-09-01T03:39:10.930Z,71.28
2018-09-01T03:41:39.483Z,71.38
2018-09-01T03:44:08.150Z,71.22
2018-09-01T03:46:37.948Z,71.65
2018-09-01T03:49:07.827Z,71.71
2018-09-01T03:51:36.789Z,71.68
2018-09-01T03:54:05.074Z,72.37
2018-09-01T03:56:33.242Z,72.42
2018-09-01T03:59:02.213Z,72.43
2018-09-01T04:01:30.472Z,72.09
2018-09-01T04:03:59.671Z,71.59
2018-09-01T04:06:27.840Z,72.28
2018-09-01T04:08:55.981Z,72.39
2018-09-01T04:11:24.396Z,71.64
2018-09-01T04:13:52.613Z,72.54
2018-09-01T04:16:20.796Z,72.02
2018-09-01T04:18:49.134Z,72.20
2018-09-01T04:21:18.073Z,72.72
2018-09-01T04:23:46.283Z,72.36
2018-09-01T04:26:14.509Z,72.87
2018-09-01T04:28:43.299Z,73.16
2018-09-01T04:31:11.459Z,72.47
2018-09-01T04:33:39.602Z,72.51
2018-09-01T04:36:08.549Z,72.72
2018-09-01T04:38:36.777Z,72.77
2018-09-01T04:41:05.078Z,73.29
2018-09-01T04:43:33.346Z,73.32
2018-09-01T04:46:02.511Z,73.35
2018-09-01T04:48:30.660Z,73.42
2018-09-01T04:50:58.851Z,72.77
2018-09-01T04:53:27.791Z,73.02
2018-09-01T04:55:56.036Z,72.76
2018-09-01T04:58:25.205Z,72.69
2018-09-01T05:00:53.481Z,71.85
2018-09-01T05:03:21.693Z,72.02
2018-09-01T05:05:50.004Z,71.55
2018-09-01T05:08:18.202Z,70.77
2018-09-01T05:10:47.074Z,70.73
2018-09-01T05:13:15.284Z,70.42
2018-09-01T05:15:43.656Z,70.44
2018-09-01T05:18:12.538Z,70.06
2018-09-01T05:20:40.764Z,70.04
2018-09-01T05:23:09.097Z,70.62
2018-09-01T05:25:38.524Z,70.59
2018-09-01T05:28:06.740Z,69.35
2018-09-01T05:30:35.076Z,70.26
2018-09-01T05:33:03.420Z,70.25
2018-09-01T05:35:31.804Z,70.01
2018-09-01T05:38:00.143Z,69.68
2018-09-01T05:40:29.142Z,68.23
2018-09-01T05:42:57.312Z,68.33
2018-09-01T05:45:25.592Z,67.84
2018-09-01T05:47:53.798Z,67.47
2018-09-01T05:50:22.022Z,66.55
2018-09-01T05:52:50.274Z,65.21
2018-09-01T05:55:18.457Z,64.84
2018-09-01T05:57:46.892Z,64.15
2018-09-01T06:00:19.642Z,62.56
2018-09-01T06:02:50.639Z,62.26
2018-09-01T06:05:18.870Z,63.68
2018-09-01T06:07:48.215Z,64.31
2018-09-01T06:10:16.480Z,64.48
2018-09-01T06:12:44.876Z,64.99
2018-09-01T06:15:13.250Z,65.69
2018-09-01T06:17:41.637Z,65.14
2018-09-01T06:20:09.743Z,65.46
2018-09-01T06:22:38.101Z,65.04
2018-09-01T06:25:06.473Z,66.26
2018-09-01T06:27:41.135Z,66.20
2018-09-01T06:30:13.953Z,67.29
2018-09-01T06:32:42.349Z,67.10
2018-09-01T06:35:10.549Z,67.75
2018-09-01T06:37:38.777Z,67.00
2018-09-01T06:40:07.235Z,66.48
2018-09-01T06:42:35.555Z,66.38
2018-09-01T06:45:03.786Z,65.76
2018-09-01T06:47:32.541Z,63.97
2018-09-01T06:50:01.294Z,62.92
2018-09-01T06:52:29.453Z,61.82
2018-09-01T06:54:57.711Z,61.27
2018-09-01T06:57:25.833Z,60.96
2018-09-01T06:59:54.028Z,60.58
2018-09-01T07:02:22.467Z,60.75
2018-09-01T07:04:50.720Z,61.20
2018-09-01T07:07:18.926Z,61.41
2018-09-01T07:09:47.109Z,62.73
2018-09-01T07:12:15.364Z,63.17
2018-09-01T07:14:43.607Z,64.40
2018-09-01T07:17:11.990Z,64.35
2018-09-01T07:19:40.213Z,63.85
2018-09-01T07:22:08.420Z,63.45
2018-09-01T07:24:36.717Z,63.91
2018-09-01T07:27:05.056Z,61.93
2018-09-01T07:29:33.288Z,61.71
2018-09-01T07:32:01.476Z,60.63
2018-09-01T07:34:29.710Z,58.91
2018-09-01T07:36:58.496Z,57.99
2018-09-01T07:39:26.658Z,57.69
2018-09-01T07:41:54.840Z,55.71
2018-09-01T07:44:22.993Z,55.18
2018-09-01T07:46:51.218Z,53.03
2018-09-01T07:49:19.415Z,51.48
2018-09-01T07:51:47.799Z,48.33
2018-09-01T07:54:16.009Z,40.85
2018-09-01T07:56:44.235Z,33.04
2018-09-01T07:59:12.477Z,28.48
2018-09-01T08:01:40.685Z,25.13
2018-09-01T08:04:09.077Z,24.15
2018-09-01T08:06:37.177Z,20.40
2018-09-01T08:09:07.759Z,20.97
2018-09-01T08:11:36.473Z,20.59
2018-09-01T08:14:04.745Z,23.07
2018-09-01T08:16:32.777Z,21.92
2018-09-01T08:19:00.950Z,21.52
2018-09-01T08:21:30.079Z,20.73
2018-09-01T08:23:58.179Z,20.63
2018-09-01T08:26:26.344Z,19.63
2018-09-01T08:28:54.473Z,21.74
2018-09-01T08:31:22.642Z,19.77
2018-09-01T08:33:50.907Z,18.88
2018-09-01T08:36:19.420Z,17.86
2018-09-01T08:38:49.337Z,18.75
2018-09-01T08:41:17.587Z,17.35
2018-09-01T08:43:45.804Z,15.54
2018-09-01T08:46:14.046Z,14.12
2018-09-01T08:48:48.943Z,15.67
2018-09-01T08:51:17.144Z,16.95
2018-09-01T08:53:45.299Z,15.55
2018-09-01T08:56:13.465Z,14.62
2018-09-01T08:58:41.769Z,16.28
2018-09-01T09:01:09.994Z,15.58
2018-09-01T09:03:38.124Z,15.47
2018-09-01T09:06:06.365Z,14.62
2018-09-01T09:08:34.657Z,15.68
2018-09-01T09:11:02.832Z,15.84
2018-09-01T09:13:31.004Z,16.98
2018-09-01T09:15:59.120Z,19.54
2018-09-01T09:18:27.316Z,22.14
2018-09-01T09:20:55.489Z,22.15
2018-09-01T09:23:23.701Z,20.63
2018-09-01T09:25:51.987Z,20.14
2018-09-01T09:28:20.663Z,18.06
2018-09-01T09:30:49.530Z,21.13
2018-09-01T09:33:17.819Z,24.49
2018-09-01T09:35:46.361Z,25.33
2018-09-01T09:38:14.730Z,21.91
2018-09-01T09:40:43.068Z,17.98
2018-09-01T09:43:11.389Z,17.98
2018-09-01T09:45:39.634Z,20.91
2018-09-01T09:48:07.801Z,23.34
2018-09-01T09:50:35.888Z,24.68
2018-09-01T09:53:04.546Z,21.27
2018-09-01T09:55:32.636Z,17.56
2018-09-01T09:58:00.778Z,18.48
2018-09-01T10:00:34.664Z,16.66
2018-09-01T10:03:02.852Z,19.74
2018-09-01T10:05:31.093Z,19.73
2018-09-01T10:07:59.348Z,17.67
2018-09-01T10:10:27.542Z,15.63
2018-09-01T10:12:55.724Z,13.35
2018-09-01T10:15:23.971Z,13.29
2018-09-01T10:17:58.763Z,14.36
2018-09-01T10:20:27.022Z,14.31
2018-09-01T10:22:55.252Z,14.62
2018-09-01T10:25:23.392Z,15.27
2018-09-01T10:27:51.493Z,16.27
2018-09-01T10:30:19.613Z,18.17
2018-09-01T10:32:47.898Z,16.61
2018-09-01T10:35:16.011Z,14.40
2018-09-01T10:37:44.293Z,12.72
2018-09-01T10:40:12.471Z,11.19
2018-09-01T10:42:40.808Z,9.66
2018-09-01T10:45:09.065Z,10.58
2018-09-01T10:47:37.177Z,11.95
2018-09-01T10:50:05.427Z,12.34
2018-09-01T10:52:33.750Z,13.46
2018-09-01T10:55:02.071Z,11.88
2018-09-01T10:57:30.411Z,12.29
2018-09-01T10:59:58.680Z,11.85
2018-09-01T11:02:27.029Z,13.98
2018-09-01T11:04:55.255Z,15.55
2018-09-01T11:07:23.961Z,18.25
2018-09-01T11:09:52.071Z,18.79
2018-09-01T11:12:20.554Z,19.08
2018-09-01T11:14:48.713Z,19.68
2018-09-01T11:17:17.655Z,22.13
2018-09-01T11:19:46.915Z,20.80
2018-09-01T11:22:15.419Z,21.59
2018-09-01T11:24:43.571Z,20.28
2018-09-01T11:27:11.804Z,21.56
2018-09-01T11:29:39.955Z,20.10
2018-09-01T11:32:08.157Z,17.44
2018-09-01T11:34:36.329Z,19.50
2018-09-01T11:37:04.561Z,19.12
2018-09-01T11:39:32.805Z,18.26
2018-09-01T11:42:01.099Z,14.35
2018-09-01T11:44:29.344Z,13.18
2018-09-01T11:46:57.545Z,13.26
2018-09-01T11:49:25.756Z,12.44
2018-09-01T11:51:54.049Z,12.55
2018-09-01T11:54:22.303Z,10.89
2018-09-01T11:56:50.520Z,13.90
2018-09-01T11:59:18.754Z,15.13
2018-09-01T12:01:46.957Z,15.62
2018-09-01T12:04:15.291Z,16.80
2018-09-01T12:06:43.696Z,17.16
2018-09-01T12:09:12.219Z,17.62
2018-09-01T12:11:40.485Z,17.64
2018-09-01T12:14:08.669Z,16.61
2018-09-01T12:16:36.878Z,17.60
2018-09-01T12:19:05.183Z,17.37
2018-09-01T12:21:33.373Z,14.43
2018-09-01T12:24:01.649Z,13.09
2018-09-01T12:26:29.925Z,14.06
2018-09-01T12:28:58.086Z,14.42
2018-09-01T12:31:26.363Z,15.65
2018-09-01T12:33:55.321Z,16.72
2018-09-01T12:36:24.260Z,15.70
2018-09-01T12:38:52.437Z,18.38
2018-09-01T12:41:20.662Z,17.97
2018-09-01T12:43:48.765Z,19.78
2018-09-01T12:46:17.025Z,20.46
2018-09-01T12:48:45.217Z,21.46
2018-09-01T12:51:13.394Z,21.37
2018-09-01T12:53:41.751Z,22.12
2018-09-01T12:56:10.070Z,23.14
2018-09-01T12:58:38.741Z,22.35
2018-09-01T13:01:07.376Z,21.94
2018-09-01T13:03:35.636Z,23.30
2018-09-01T13:06:03.894Z,23.39
2018-09-01T13:08:32.153Z,23.87
2018-09-01T13:11:00.388Z,23.25
2018-09-01T13:13:28.721Z,21.47
2018-09-01T13:15:56.904Z,23.10
2018-09-01T13:18:25.134Z,23.40
2018-09-01T13:20:53.400Z,24.89
2018-09-01T13:23:21.645Z,26.51
2018-09-01T13:25:49.905Z,26.13
2018-09-01T13:28:18.231Z,26.25
2018-09-01T13:30:46.397Z,26.41
2018-09-01T13:33:14.634Z,27.07
2018-09-01T13:35:42.851Z,27.44
2018-09-01T13:38:11.204Z,28.11
2018-09-01T13:40:39.576Z,28.53
2018-09-01T13:43:07.716Z,29.30
2018-09-01T13:45:35.880Z,28.64
2018-09-01T13:48:04.234Z,30.22
2018-09-01T13:50:32.468Z,30.47
2018-09-01T13:53:00.924Z,29.02
2018-09-01T13:55:29.969Z,29.05
2018-09-01T13:57:59.912Z,29.26
2018-09-01T14:00:28.125Z,29.16
2018-09-01T14:02:56.246Z,28.92
2018-09-01T14:05:24.323Z,27.37
2018-09-01T14:07:52.510Z,27.44
2018-09-01T14:10:20.712Z,28.67
2018-09-01T14:12:48.981Z,28.43
2018-09-01T14:15:17.099Z,28.48
2018-09-01T14:17:45.382Z,29.86
2018-09-01T14:20:13.661Z,28.73
2018-09-01T14:22:41.928Z,29.50
2018-09-01T14:25:10.112Z,29.76
2018-09-01T14:27:38.335Z,30.47
2018-09-01T14:30:07.398Z,31.24
2018-09-01T14:32:36.009Z,31.20
2018-09-01T14:35:05.483Z,31.33
2018-09-01T14:37:33.776Z,31.43
2018-09-01T14:40:02.823Z,31.81
2018-09-01T14:42:31.031Z,31.98
2018-09-01T14:44:59.606Z,31.61
2018-09-01T14:47:27.965Z,32.42
2018-09-01T14:49:56.115Z,32.93
2018-09-01T14:52:24.428Z,32.22
2018-09-01T14:54:52.653Z,32.67
2018-09-01T14:57:20.880Z,33.30
2018-09-01T14:59:49.575Z,33.21
2018-09-01T15:02:18.799Z,33.07
2018-09-01T15:04:46.986Z,34.10
2018-09-01T15:07:15.202Z,33.65
2018-09-01T15:09:43.565Z,34.22
2018-09-01T15:12:11.759Z,34.47
2018-09-01T15:14:39.959Z,34.53
2018-09-01T15:17:08.048Z,34.85
2018-09-01T15:19:36.455Z,34.75
2018-09-01T15:22:04.638Z,35.05
2018-09-01T15:24:32.815Z,35.98
2018-09-01T15:27:00.983Z,35.83
2018-09-01T15:29:29.164Z,36.31
2018-09-01T15:31:57.416Z,36.39
2018-09-01T15:34:25.572Z,36.55
2018-09-01T15:36:54.495Z,36.35
2018-09-01T15:39:22.872Z,36.36
2018-09-01T15:41:51.191Z,36.23
2018-09-01T15:44:19.425Z,36.23
2018-09-01T15:46:47.615Z,36.80
2018-09-01T15:49:15.926Z,36.71
2018-09-01T15:51:44.085Z,36.90
2018-09-01T15:54:12.277Z,36.98
2018-09-01T15:56:41.120Z,38.06
2018-09-01T15:59:09.312Z,37.75
2018-09-01T16:01:38.190Z,38.00
2018-09-01T16:04:06.424Z,38.03
2018-09-01T16:06:36.738Z,37.49
2018-09-01T16:09:05.960Z,36.85
2018-09-01T16:11:34.330Z,37.92
2018-09-01T16:14:03.968Z,38.07
2018-09-01T16:16:32.432Z,38.43
2018-09-01T16:19:00.796Z,38.47
2018-09-01T16:21:29.080Z,37.80
2018-09-01T16:23:57.334Z,38.13
2018-09-01T16:26:26.478Z,39.27
2018-09-01T16:29:02.584Z,39.36
2018-09-01T16:31:30.784Z,39.06
2018-09-01T16:33:58.983Z,39.40
2018-09-01T16:36:27.184Z,39.70
2018-09-01T16:38:55.746Z,39.42
2018-09-01T16:41:32.618Z,40.26
2018-09-01T16:44:00.965Z,40.53
2018-09-01T16:46:29.241Z,41.03
2018-09-01T16:48:57.679Z,41.24
2018-09-01T16:51:25.915Z,41.43
2018-09-01T16:53:54.110Z,40.84
2018-09-01T16:56:22.421Z,40.66
2018-09-01T16:58:50.647Z,41.06
2018-09-01T17:01:18.841Z,41.46
2018-09-01T17:03:47.080Z,42.39
2018-09-01T17:06:15.327Z,42.03
2018-09-01T17:08:43.597Z,42.26
2018-09-01T17:11:11.990Z,42.37
2018-09-01T17:13:40.114Z,42.04
2018-09-01T17:16:08.537Z,42.62
2018-09-01T17:18:36.893Z,42.56
2018-09-01T17:21:11.960Z,42.86
2018-09-01T17:23:40.049Z,42.92
2018-09-01T17:26:08.236Z,42.97
2018-09-01T17:28:36.515Z,42.66
2018-09-01T17:31:04.978Z,42.41
2018-09-01T17:33:33.254Z,42.99
2018-09-01T17:36:01.348Z,43.07
2018-09-01T17:38:29.466Z,43.49
2018-09-01T17:40:57.688Z,43.33
2018-09-01T17:43:25.930Z,43.25
2018-09-01T17:45:54.170Z,43.48
2018-09-01T17:48:22.437Z,43.43
2018-09-01T17:50:50.671Z,44.06
2018-09-01T17:53:18.886Z,43.63
2018-09-01T17:55:47.084Z,43.42
2018-09-01T17:58:15.244Z,43.47
2018-09-01T18:00:43.432Z,43.08
2018-09-01T18:03:12.305Z,43.83
2018-09-01T18:05:40.468Z,44.29
2018-09-01T18:08:08.892Z,44.06
2018-09-01T18:10:37.153Z,44.26
2018-09-01T18:13:05.497Z,44.33
2018-09-01T18:15:33.693Z,44.29
2018-09-01T18:18:02.336Z,43.84
2018-09-01T18:20:37.464Z,45.05
2018-09-01T18:23:05.718Z,44.11
2018-09-01T18:25:33.836Z,44.85
2018-09-01T18:28:03.039Z,45.29
2018-09-01T18:30:31.378Z,44.88
2018-09-01T18:32:59.609Z,44.82
2018-09-01T18:35:27.886Z,45.16
2018-09-01T18:37:56.004Z,45.13
2018-09-01T18:40:24.298Z,45.32
2018-09-01T18:42:52.445Z,45.74
2018-09-01T18:45:21.305Z,44.95
2018-09-01T18:47:49.543Z,45.61
2018-09-01T18:50:17.757Z,45.79
2018-09-01T18:52:45.993Z,45.45
2018-09-01T18:55:14.624Z,45.67
2018-09-01T18:57:43.086Z,45.19
2018-09-01T19:00:11.326Z,45.93
2018-09-01T19:02:39.622Z,46.13
2018-09-01T19:05:08.611Z,46.63
2018-09-01T19:07:37.599Z,46.39
2018-09-01T19:10:05.883Z,47.16
2018-09-01T19:12:34.076Z,47.11
2018-09-01T19:15:02.208Z,46.80
2018-09-01T19:17:31.241Z,47.16
2018-09-01T19:20:00.107Z,46.90
2018-09-01T19:22:31.903Z,47.58
2018-09-01T19:25:01.461Z,47.96
2018-09-01T19:27:30.345Z,47.92
2018-09-01T19:29:59.376Z,48.23
2018-09-01T19:32:27.877Z,48.03
2018-09-01T19:34:56.088Z,48.13
2018-09-01T19:37:24.278Z,48.33
2018-09-01T19:39:52.645Z,48.07
2018-09-01T19:42:20.834Z,48.93
2018-09-01T19:44:49.372Z,48.26
2018-09-01T19:47:17.395Z,49.03
2018-09-01T19:49:45.847Z,49.31
2018-09-01T19:52:13.954Z,49.67
2018-09-01T19:54:42.083Z,49.91
2018-09-01T19:57:10.309Z,49.52
2018-09-01T19:59:38.800Z,50.73
2018-09-01T20:02:07.043Z,50.58
2018-09-01T20:04:35.423Z,50.46
2018-09-01T20:07:03.742Z,50.90
2018-09-01T20:09:32.090Z,51.33
2018-09-01T20:12:00.276Z,51.39
2018-09-01T20:14:28.558Z,52.49
2018-09-01T20:16:56.820Z,52.76
2018-09-01T20:19:24.990Z,52.77
2018-09-01T20:21:53.212Z,52.68
2018-09-01T20:24:21.456Z,52.34
2018-09-01T20:26:49.775Z,52.02
2018-09-01T20:29:17.934Z,52.71
2018-09-01T20:31:46.152Z,52.45
2018-09-01T20:34:15.077Z,52.41
2018-09-01T20:36:43.314Z,52.52
2018-09-01T20:39:11.493Z,51.94
2018-09-01T20:41:39.643Z,52.40
2018-09-01T20:44:08.329Z,51.96
2018-09-01T20:46:36.572Z,52.04
2018-09-01T20:49:05.661Z,52.48
2018-09-01T20:51:33.855Z,52.46
2018-09-01T20:54:02.030Z,52.26
2018-09-01T20:56:30.309Z,52.72
2018-09-01T20:58:58.507Z,52.30
2018-09-01T21:01:26.704Z,52.77
2018-09-01T21:03:54.923Z,52.71
2018-09-01T21:06:23.282Z,53.06
2018-09-01T21:08:51.370Z,52.38
2018-09-01T21:11:19.677Z,53.26
2018-09-01T21:13:47.889Z,53.52
2018-09-01T21:16:16.228Z,54.04
2018-09-01T21:18:44.450Z,54.90
2018-09-01T21:21:12.719Z,56.39
2018-09-01T21:23:40.942Z,56.29
2018-09-01T21:26:09.185Z,57.33
2018-09-01T21:28:37.379Z,57.20
2018-09-01T21:31:05.644Z,57.20
2018-09-01T21:33:33.850Z,57.05
2018-09-01T21:36:02.118Z,57.15
2018-09-01T21:38:30.595Z,56.85
2018-09-01T21:40:58.791Z,57.00
2018-09-01T21:43:27.367Z,56.74
2018-09-01T21:45:55.542Z,57.54
2018-09-01T21:48:23.672Z,57.28
2018-09-01T21:50:51.839Z,57.83
2018-09-01T21:53:19.955Z,57.94
2018-09-01T21:55:48.294Z,58.02
2018-09-01T21:58:16.524Z,58.39
2018-09-01T22:00:50.486Z,60.04
2018-09-01T22:03:19.986Z,59.15
2018-09-01T22:05:49.056Z,59.01
2018-09-01T22:08:17.348Z,59.18
2018-09-01T22:10:45.484Z,59.82
2018-09-01T22:13:13.685Z,58.36
2018-09-01T22:15:41.824Z,59.01
2018-09-01T22:18:09.985Z,58.52
2018-09-01T22:20:38.257Z,58.01
2018-09-01T22:23:06.431Z,59.00
2018-09-01T22:25:34.530Z,58.64
2018-09-01T22:28:02.734Z,58.87
2018-09-01T22:30:31.232Z,58.35
2018-09-01T22:32:59.365Z,58.88
2018-09-01T22:35:27.568Z,58.95
2018-09-01T22:37:55.728Z,58.56
2018-09-01T22:40:24.515Z,58.71
2018-09-01T22:42:52.641Z,59.10
2018-09-01T22:45:20.943Z,59.25
2018-09-01T22:47:49.144Z,59.42
2018-09-01T22:50:18.288Z,59.22
2018-09-01T22:52:46.463Z,59.47
2018-09-01T22:55:14.642Z,59.55
2018-09-01T22:57:42.882Z,59.28
2018-09-01T23:00:11.197Z,58.90
2018-09-01T23:02:39.488Z,58.91
2018-09-01T23:05:07.641Z,60.14
2018-09-01T23:07:36.732Z,59.68
2018-09-01T23:10:05.069Z,59.50
2018-09-01T23:12:33.978Z,59.45
2018-09-01T23:15:02.161Z,59.36
2018-09-01T23:17:30.425Z,59.36
2018-09-01T23:19:58.719Z,59.94
2018-09-01T23:22:26.931Z,59.91
2018-09-01T23:24:55.109Z,59.79
2018-09-01T23:27:23.301Z,59.38
2018-09-01T23:29:51.497Z,60.15
2018-09-01T23:32:19.883Z,59.16
2018-09-01T23:34:49.021Z,59.12
2018-09-01T23:37:17.222Z,59.45
2018-09-01T23:39:45.385Z,58.06
2018-09-01T23:42:13.601Z,58.11
2018-09-01T23:44:41.759Z,57.73
2018-09-01T23:47:10.708Z,57.80
2018-09-01T23:49:38.909Z,57.92
2018-09-01T23:52:07.223Z,57.25
2018-09-01T23:54:35.421Z,58.07
2018-09-01T23:57:03.964Z,57.81
2018-09-01T23:59:32.107Z,57.42
